Time;durP1;ratioP1;P1;durP2;ratioP2;P2;SDS_P1;SDS_P2;PMS_P1;PMS_P2;Temp;Humidity;BMP_temperature;BMP_pressure;BME280_temperature;BME280_humidity;BME280_pressure;Samples;Min_cycle;Max_cycle;Signal;HPM_P1;HPM_P2
2022/07/23 00:01:07;;;;;;;0.13;0.13;;;;;;;;;;5037828;28;20083;-64
2022/07/23 00:03:32;;;;;;;0.00;0.00;;;;;;;;;;5038412;28;20672;-63
2022/07/23 00:05:57;;;;;;;0.00;0.00;;;;;;;;;;5038278;28;20083;-63
2022/07/23 00:08:23;;;;;;;0.00;0.00;;;;;;;;;;5038502;28;20276;-63
2022/07/23 00:10:48;;;;;;;0.43;0.43;;;;;;;;;;5039492;28;20310;-64
2022/07/23 00:13:13;;;;;;;0.00;0.00;;;;;;;;;;5039532;28;20044;-64
2022/07/23 00:15:39;;;;;;;1.40;1.30;;;;;;;;;;5037986;28;20377;-63
2022/07/23 00:18:07;;;;;;;0.47;0.20;;;;;;;;;;5035718;28;20060;-64
2022/07/23 00:20:32;;;;;;;0.00;0.00;;;;;;;;;;5040076;28;20021;-64
2022/07/23 00:23:03;;;;;;;0.63;0.30;;;;;;;;;;5041930;28;20355;-63
2022/07/23 00:25:28;;;;;;;0.90;0.90;;;;;;;;;;5040600;28;20018;-63
2022/07/23 00:27:57;;;;;;;0.15;0.15;;;;;;;;;;5046190;28;20026;-62
2022/07/23 00:30:22;;;;;;;1.05;0.68;;;;;;;;;;5041718;28;20025;-63
2022/07/23 00:32:56;;;;;;;0.00;0.00;;;;;;;;;;5033934;28;20033;-63
2022/07/23 00:35:25;;;;;;;1.67;1.02;;;;;;;;;;5041741;28;20049;-63
2022/07/23 00:37:54;;;;;;;0.35;0.35;;;;;;;;;;5043746;28;20029;-64
2022/07/23 00:40:28;;;;;;;0.10;0.10;;;;;;;;;;5038544;28;20029;-62
2022/07/23 00:42:54;;;;;;;0.00;0.00;;;;;;;;;;5038272;28;20132;-64
2022/07/23 00:45:19;;;;;;;1.15;0.95;;;;;;;;;;5036042;28;20113;-63
2022/07/23 00:47:44;;;;;;;0.28;0.28;;;;;;;;;;5041424;28;20505;-63
2022/07/23 00:50:15;;;;;;;6.90;6.28;;;;;;;;;;5039769;28;20049;-66
2022/07/23 00:52:43;;;;;;;0.15;0.15;;;;;;;;;;5041710;28;20478;-64
2022/07/23 00:55:09;;;;;;;0.00;0.00;;;;;;;;;;5036276;28;20079;-64
2022/07/23 00:57:38;;;;;;;4.85;1.30;;;;;;;;;;5041640;28;21550;-64
2022/07/23 01:00:05;;;;;;;1.25;0.52;;;;;;;;;;5037119;28;20026;-64
2022/07/23 01:02:30;;;;;;;0.30;0.30;;;;;;;;;;5036521;28;20051;-65
2022/07/23 01:04:58;;;;;;;1.15;1.05;;;;;;;;;;5041228;28;20124;-64
2022/07/23 01:07:23;;;;;;;0.75;0.75;;;;;;;;;;5039528;28;20082;-62
2022/07/23 01:09:50;;;;;;;1.17;1.15;;;;;;;;;;5042262;28;20025;-65
2022/07/23 01:12:15;;;;;;;0.10;0.10;;;;;;;;;;5042049;28;20032;-65
2022/07/23 01:14:41;;;;;;;2.20;2.10;;;;;;;;;;5042054;28;20025;-64
2022/07/23 01:17:06;;;;;;;1.07;1.03;;;;;;;;;;5041068;28;20029;-64
2022/07/23 01:19:31;;;;;;;0.30;0.30;;;;;;;;;;5041125;28;20259;-63
2022/07/23 01:21:57;;;;;;;0.32;0.32;;;;;;;;;;5038621;28;20268;-63
2022/07/23 01:24:23;;;;;;;0.00;0.00;;;;;;;;;;5041517;28;20041;-62
2022/07/23 01:26:49;;;;;;;0.80;0.52;;;;;;;;;;5039805;28;20025;-64
2022/07/23 01:29:16;;;;;;;7.13;1.58;;;;;;;;;;5041233;28;20104;-63
2022/07/23 01:31:47;;;;;;;2.33;2.17;;;;;;;;;;5040695;28;20090;-62
2022/07/23 01:34:16;;;;;;;1.20;0.82;;;;;;;;;;5044676;28;20021;-62
2022/07/23 01:36:41;;;;;;;0.10;0.10;;;;;;;;;;5042644;28;20480;-62
2022/07/23 01:39:07;;;;;;;0.00;0.00;;;;;;;;;;5038295;28;20160;-62
2022/07/23 01:41:32;;;;;;;0.10;0.10;;;;;;;;;;5039189;28;20025;-62
2022/07/23 01:43:57;;;;;;;0.00;0.00;;;;;;;;;;5038387;28;20032;-63
2022/07/23 01:46:22;;;;;;;0.00;0.00;;;;;;;;;;5038409;28;20467;-63
2022/07/23 01:48:48;;;;;;;0.20;0.20;;;;;;;;;;5042327;28;20031;-63
2022/07/23 01:51:16;;;;;;;0.00;0.00;;;;;;;;;;5038001;28;20021;-63
2022/07/23 01:53:44;;;;;;;0.08;0.08;;;;;;;;;;5038811;28;20084;-64
2022/07/23 01:56:09;;;;;;;5.32;1.63;;;;;;;;;;5039608;28;20021;-61
2022/07/23 01:58:34;;;;;;;0.35;0.35;;;;;;;;;;5038915;28;20488;-62
2022/07/23 02:01:00;;;;;;;0.22;0.22;;;;;;;;;;5038573;28;20072;-62
2022/07/23 02:03:28;;;;;;;0.00;0.00;;;;;;;;;;5043065;28;20444;-63
2022/07/23 02:05:53;;;;;;;0.80;0.77;;;;;;;;;;5043013;28;20434;-63
2022/07/23 02:08:21;;;;;;;0.20;0.20;;;;;;;;;;5041237;28;20051;-65
2022/07/23 02:10:51;;;;;;;0.30;0.10;;;;;;;;;;5040680;28;20089;-63
2022/07/23 02:13:19;;;;;;;2.10;1.25;;;;;;;;;;5040810;28;20021;-62
2022/07/23 02:15:48;;;;;;;1.65;1.55;;;;;;;;;;5041604;28;20500;-62
2022/07/23 02:18:15;;;;;;;0.00;0.00;;;;;;;;;;5043198;28;20108;-65
2022/07/23 02:20:41;;;;;;;0.60;0.60;;;;;;;;;;5044349;28;20029;-64
2022/07/23 02:23:06;;;;;;;0.00;0.00;;;;;;;;;;5036420;28;20385;-63
2022/07/23 02:25:32;;;;;;;0.00;0.00;;;;;;;;;;5039804;28;20063;-63
2022/07/23 02:27:57;;;;;;;2.17;2.08;;;;;;;;;;5040259;28;20449;-64
2022/07/23 02:30:25;;;;;;;0.00;0.00;;;;;;;;;;5039160;28;20021;-63
2022/07/23 02:32:54;;;;;;;0.00;0.00;;;;;;;;;;5043786;28;20271;-61
2022/07/23 02:35:19;;;;;;;0.00;0.00;;;;;;;;;;5042180;28;20033;-61
2022/07/23 02:37:44;;;;;;;0.47;0.47;;;;;;;;;;5040022;28;20036;-61
2022/07/23 02:40:18;;;;;;;0.10;0.10;;;;;;;;;;5040034;28;20091;-61
2022/07/23 02:42:49;;;;;;;0.10;0.10;;;;;;;;;;5038542;28;20021;-62
2022/07/23 02:45:14;;;;;;;1.90;0.98;;;;;;;;;;5040036;28;20025;-63
2022/07/23 02:47:42;;;;;;;0.00;0.00;;;;;;;;;;5039535;28;20474;-62
2022/07/23 02:50:08;;;;;;;0.00;0.00;;;;;;;;;;5040815;28;20029;-62
2022/07/23 02:52:36;;;;;;;0.00;0.00;;;;;;;;;;5038654;28;20499;-60
2022/07/23 02:55:04;;;;;;;0.00;0.00;;;;;;;;;;5040758;28;20028;-60
2022/07/23 02:57:29;;;;;;;0.00;0.00;;;;;;;;;;5039700;28;20021;-65
2022/07/23 02:59:54;;;;;;;0.75;0.70;;;;;;;;;;5041651;28;20139;-63
2022/07/23 03:02:23;;;;;;;0.00;0.00;;;;;;;;;;5041934;28;20128;-63
2022/07/23 03:04:50;;;;;;;1.65;1.55;;;;;;;;;;5039716;28;20341;-63
2022/07/23 03:07:21;;;;;;;0.00;0.00;;;;;;;;;;5041063;28;20025;-63
2022/07/23 03:09:46;;;;;;;0.98;0.98;;;;;;;;;;5038960;28;20429;-63
2022/07/23 03:12:11;;;;;;;0.00;0.00;;;;;;;;;;5037116;28;20017;-63
2022/07/23 03:14:36;;;;;;;1.13;0.93;;;;;;;;;;5035198;28;20025;-63
2022/07/23 03:17:01;;;;;;;0.95;0.90;;;;;;;;;;5038008;28;20263;-62
2022/07/23 03:19:27;;;;;;;0.20;0.20;;;;;;;;;;5037423;28;20022;-62
2022/07/23 03:21:55;;;;;;;0.68;0.68;;;;;;;;;;5038614;28;20031;-62
2022/07/23 03:24:20;;;;;;;1.83;1.75;;;;;;;;;;5037614;28;20038;-62
2022/07/23 03:26:45;;;;;;;0.52;0.52;;;;;;;;;;5039701;28;20021;-62
2022/07/23 03:29:19;;;;;;;2.60;2.45;;;;;;;;;;5039759;28;20021;-63
2022/07/23 03:32:02;;;;;;;0.28;0.28;;;;;;;;;;5040790;28;20020;-62
2022/07/23 03:34:28;;;;;;;1.52;0.93;;;;;;;;;;5037812;28;20021;-63
2022/07/23 03:36:53;;;;;;;1.40;1.00;;;;;;;;;;5040456;28;20067;-62
2022/07/23 03:39:21;;;;;;;0.10;0.10;;;;;;;;;;5040023;28;20256;-62
2022/07/23 03:41:46;;;;;;;0.95;0.95;;;;;;;;;;5039402;28;20025;-62
2022/07/23 03:44:14;;;;;;;4.38;2.40;;;;;;;;;;5038108;28;20025;-63
2022/07/23 03:46:39;;;;;;;2.40;2.30;;;;;;;;;;5039206;28;20440;-61
2022/07/23 03:49:13;;;;;;;0.83;0.83;;;;;;;;;;5039491;28;20029;-63
2022/07/23 03:51:39;;;;;;;1.75;1.65;;;;;;;;;;5039044;28;20262;-62
2022/07/23 03:54:07;;;;;;;1.13;1.13;;;;;;;;;;5035555;28;20025;-62
2022/07/23 03:56:32;;;;;;;3.60;0.63;;;;;;;;;;5037083;28;20014;-65
2022/07/23 03:58:57;;;;;;;0.00;0.00;;;;;;;;;;5036827;28;20083;-69
2022/07/23 04:01:22;;;;;;;2.13;1.55;;;;;;;;;;5034928;28;20292;-68
2022/07/23 04:03:50;;;;;;;2.13;2.03;;;;;;;;;;5039187;28;20033;-68
2022/07/23 04:06:18;;;;;;;1.10;1.00;;;;;;;;;;5037622;28;20425;-68
2022/07/23 04:08:43;;;;;;;0.50;0.50;;;;;;;;;;5037505;28;20480;-68
2022/07/23 04:11:08;;;;;;;0.20;0.20;;;;;;;;;;5021628;28;20033;-63
2022/07/23 04:13:33;;;;;;;3.65;1.65;;;;;;;;;;5037939;28;20041;-63
2022/07/23 04:15:59;;;;;;;0.13;0.13;;;;;;;;;;5038004;28;20024;-64
2022/07/23 04:18:24;;;;;;;1.85;1.75;;;;;;;;;;5035286;28;20044;-63
2022/07/23 04:20:53;;;;;;;0.00;0.00;;;;;;;;;;5037076;28;20451;-61
2022/07/23 04:23:18;;;;;;;0.65;0.65;;;;;;;;;;5035221;28;20025;-62
2022/07/23 04:25:43;;;;;;;1.60;1.50;;;;;;;;;;5036800;28;20033;-62
2022/07/23 04:28:08;;;;;;;3.65;1.10;;;;;;;;;;5039630;28;20321;-64
2022/07/23 04:30:33;;;;;;;1.60;1.55;;;;;;;;;;5021044;28;20104;-62
2022/07/23 04:33:05;;;;;;;0.10;0.10;;;;;;;;;;5040208;28;20551;-66
2022/07/23 04:35:30;;;;;;;0.15;0.15;;;;;;;;;;5036309;28;20482;-63
2022/07/23 04:37:59;;;;;;;0.00;0.00;;;;;;;;;;5037521;28;20029;-63
2022/07/23 04:40:27;;;;;;;0.00;0.00;;;;;;;;;;5036607;28;20021;-62
2022/07/23 04:42:55;;;;;;;1.17;0.40;;;;;;;;;;5039501;28;20029;-64
2022/07/23 04:45:24;;;;;;;0.98;0.90;;;;;;;;;;5038317;28;20736;-64
2022/07/23 04:47:50;;;;;;;0.00;0.00;;;;;;;;;;5038570;28;20100;-64
2022/07/23 04:50:18;;;;;;;5.22;1.25;;;;;;;;;;5036367;28;20147;-63
2022/07/23 04:52:44;;;;;;;1.52;1.50;;;;;;;;;;5039139;28;20021;-64
2022/07/23 04:55:09;;;;;;;1.10;1.10;;;;;;;;;;5039676;28;20104;-61
2022/07/23 04:57:34;;;;;;;0.75;0.75;;;;;;;;;;5039838;28;20022;-61
2022/07/23 05:00:02;;;;;;;0.40;0.40;;;;;;;;;;5038935;28;20029;-62
2022/07/23 05:02:27;;;;;;;0.73;0.73;;;;;;;;;;5038041;28;20037;-62
2022/07/23 05:04:52;;;;;;;1.85;1.85;;;;;;;;;;5031497;28;20036;-62
2022/07/23 05:07:18;;;;;;;2.73;0.40;;;;;;;;;;5042155;28;20017;-61
2022/07/23 05:09:43;;;;;;;3.30;2.15;;;;;;;;;;5042123;28;20260;-62
2022/07/23 05:12:08;;;;;;;0.80;0.80;;;;;;;;;;5040096;28;20041;-64
2022/07/23 05:14:36;;;;;;;0.00;0.00;;;;;;;;;;5040578;28;20378;-63
2022/07/23 05:17:02;;;;;;;0.00;0.00;;;;;;;;;;5039309;28;20100;-63
2022/07/23 05:19:27;;;;;;;0.88;0.88;;;;;;;;;;5040113;28;20101;-60
2022/07/23 05:21:52;;;;;;;0.00;0.00;;;;;;;;;;5042202;28;20025;-60
2022/07/23 05:24:20;;;;;;;0.00;0.00;;;;;;;;;;5040206;28;20442;-60
2022/07/23 05:26:45;;;;;;;0.00;0.00;;;;;;;;;;5041981;28;20482;-60
2022/07/23 05:29:10;;;;;;;0.85;0.85;;;;;;;;;;5041060;28;20017;-64
2022/07/23 05:31:35;;;;;;;1.67;1.58;;;;;;;;;;5038296;28;20017;-62
2022/07/23 05:34:01;;;;;;;0.20;0.20;;;;;;;;;;5039313;28;20029;-63
2022/07/23 05:36:26;;;;;;;0.00;0.00;;;;;;;;;;5041758;28;20256;-64
2022/07/23 05:38:51;;;;;;;2.85;2.65;;;;;;;;;;5040205;28;20025;-63
2022/07/23 05:41:17;;;;;;;0.43;0.43;;;;;;;;;;5022872;28;20128;-63
2022/07/23 05:43:42;;;;;;;0.00;0.00;;;;;;;;;;5038166;28;20033;-63
2022/07/23 05:46:07;;;;;;;0.03;0.03;;;;;;;;;;5035871;28;20322;-63
2022/07/23 05:48:35;;;;;;;0.27;0.17;;;;;;;;;;5039656;28;20055;-64
2022/07/23 05:51:00;;;;;;;0.00;0.00;;;;;;;;;;5042185;28;20659;-63
2022/07/23 05:53:26;;;;;;;0.15;0.15;;;;;;;;;;5043907;28;20044;-63
2022/07/23 05:55:51;;;;;;;0.25;0.25;;;;;;;;;;5040321;28;20032;-61
2022/07/23 05:58:19;;;;;;;1.85;1.13;;;;;;;;;;5040701;28;20017;-62
2022/07/23 06:00:47;;;;;;;0.40;0.40;;;;;;;;;;5039312;28;20458;-62
2022/07/23 06:03:12;;;;;;;0.22;0.22;;;;;;;;;;5041453;28;20076;-62
2022/07/23 06:05:40;;;;;;;2.50;0.57;;;;;;;;;;5039743;28;20118;-62
2022/07/23 06:08:05;;;;;;;7.78;1.20;;;;;;;;;;5041219;28;20055;-61
2022/07/23 06:10:33;;;;;;;0.32;0.32;;;;;;;;;;5039797;28;20044;-65
2022/07/23 06:12:59;;;;;;;4.28;0.30;;;;;;;;;;5040742;28;20477;-64
2022/07/23 06:15:24;;;;;;;0.08;0.08;;;;;;;;;;5041530;28;20022;-65
2022/07/23 06:17:49;;;;;;;0.50;0.50;;;;;;;;;;5039796;28;20028;-65
2022/07/23 06:20:14;;;;;;;0.00;0.00;;;;;;;;;;5039911;28;20046;-65
2022/07/23 06:22:40;;;;;;;0.00;0.00;;;;;;;;;;5038155;28;20039;-65
2022/07/23 06:25:09;;;;;;;1.65;1.65;;;;;;;;;;5041918;28;20017;-65
2022/07/23 06:27:34;;;;;;;3.33;3.20;;;;;;;;;;5040311;28;20040;-64
2022/07/23 06:29:59;;;;;;;0.80;0.65;;;;;;;;;;5040523;28;20402;-65
2022/07/23 06:32:24;;;;;;;0.00;0.00;;;;;;;;;;5039506;28;20021;-60
2022/07/23 06:34:50;;;;;;;0.00;0.00;;;;;;;;;;5039510;28;20029;-61
2022/07/23 06:37:15;;;;;;;0.00;0.00;;;;;;;;;;5038205;28;20389;-65
2022/07/23 06:39:41;;;;;;;0.52;0.05;;;;;;;;;;5036931;28;20028;-65
2022/07/23 06:42:06;;;;;;;1.85;1.75;;;;;;;;;;5041665;28;20029;-64
2022/07/23 06:44:32;;;;;;;0.75;0.65;;;;;;;;;;5039243;28;20060;-63
2022/07/23 06:46:57;;;;;;;0.70;0.70;;;;;;;;;;5037913;28;20025;-66
2022/07/23 06:49:25;;;;;;;0.00;0.00;;;;;;;;;;5035946;28;20096;-65
2022/07/23 06:51:50;;;;;;;0.08;0.08;;;;;;;;;;5038796;28;20025;-65
2022/07/23 06:54:15;;;;;;;0.00;0.00;;;;;;;;;;5037885;28;20020;-63
2022/07/23 06:56:41;;;;;;;0.00;0.00;;;;;;;;;;5038406;28;20733;-65
2022/07/23 06:59:06;;;;;;;0.00;0.00;;;;;;;;;;5037139;28;20276;-62
2022/07/23 07:01:43;;;;;;;0.68;0.68;;;;;;;;;;5038688;28;20045;-64
2022/07/23 07:04:09;;;;;;;0.00;0.00;;;;;;;;;;5037038;28;20053;-66
2022/07/23 07:06:34;;;;;;;0.38;0.38;;;;;;;;;;5037617;28;20026;-66
2022/07/23 07:09:02;;;;;;;0.00;0.00;;;;;;;;;;5040497;28;20595;-67
2022/07/23 07:11:30;;;;;;;0.13;0.13;;;;;;;;;;5016809;28;20025;-67
2022/07/23 07:13:56;;;;;;;0.10;0.10;;;;;;;;;;5037495;28;20478;-66
2022/07/23 07:16:21;;;;;;;1.40;0.47;;;;;;;;;;5040182;28;20054;-67
2022/07/23 07:18:49;;;;;;;0.10;0.10;;;;;;;;;;5038302;28;20105;-67
2022/07/23 07:21:14;;;;;;;0.00;0.00;;;;;;;;;;5042725;28;20302;-67
2022/07/23 07:23:40;;;;;;;2.45;0.75;;;;;;;;;;5038571;28;20761;-67
2022/07/23 07:26:11;;;;;;;0.50;0.50;;;;;;;;;;5040316;28;20377;-67
2022/07/23 07:28:39;;;;;;;0.38;0.38;;;;;;;;;;5035919;28;20104;-66
2022/07/23 07:31:04;;;;;;;0.10;0.10;;;;;;;;;;5039577;28;20024;-66
2022/07/23 07:33:32;;;;;;;0.38;0.38;;;;;;;;;;5039187;28;20090;-66
2022/07/23 07:36:00;;;;;;;0.00;0.00;;;;;;;;;;5039298;28;20074;-66
2022/07/23 07:38:32;;;;;;;0.22;0.22;;;;;;;;;;5039357;28;20302;-66
2022/07/23 07:41:00;;;;;;;0.00;0.00;;;;;;;;;;5037190;28;20036;-66
2022/07/23 07:43:25;;;;;;;0.00;0.00;;;;;;;;;;5038559;28;20056;-67
2022/07/23 07:45:50;;;;;;;1.37;1.37;;;;;;;;;;5039773;28;20064;-66
2022/07/23 07:48:18;;;;;;;0.63;0.63;;;;;;;;;;5038461;28;20339;-66
2022/07/23 07:50:43;;;;;;;0.00;0.00;;;;;;;;;;5033900;28;20116;-66
2022/07/23 07:53:09;;;;;;;0.10;0.10;;;;;;;;;;5040319;28;20117;-67
2022/07/23 07:55:34;;;;;;;0.00;0.00;;;;;;;;;;5037843;28;20036;-67
2022/07/23 07:58:00;;;;;;;0.60;0.55;;;;;;;;;;5037257;28;20033;-66
2022/07/23 08:00:25;;;;;;;0.00;0.00;;;;;;;;;;5036279;28;20070;-66
2022/07/23 08:02:54;;;;;;;0.00;0.00;;;;;;;;;;5037029;28;20037;-67
2022/07/23 08:05:26;;;;;;;0.20;0.10;;;;;;;;;;5038367;28;20035;-67
2022/07/23 08:08:03;;;;;;;0.10;0.10;;;;;;;;;;5039242;28;20022;-67
2022/07/23 08:10:32;;;;;;;0.00;0.00;;;;;;;;;;5036002;28;20025;-65
2022/07/23 08:13:00;;;;;;;0.32;0.32;;;;;;;;;;5036588;28;20025;-66
2022/07/23 08:15:27;;;;;;;0.00;0.00;;;;;;;;;;5039203;28;20401;-66
2022/07/23 08:17:52;;;;;;;0.00;0.00;;;;;;;;;;5037133;28;20032;-66
2022/07/23 08:20:18;;;;;;;0.00;0.00;;;;;;;;;;5038081;28;20021;-66
2022/07/23 08:22:45;;;;;;;0.00;0.00;;;;;;;;;;5034900;28;20363;-66
2022/07/23 08:25:10;;;;;;;0.00;0.00;;;;;;;;;;5034885;28;20040;-67
2022/07/23 08:27:35;;;;;;;0.00;0.00;;;;;;;;;;5039124;28;20450;-65
2022/07/23 08:30:00;;;;;;;0.00;0.00;;;;;;;;;;5038439;28;20025;-65
2022/07/23 08:32:26;;;;;;;0.00;0.00;;;;;;;;;;5034041;28;20451;-65
2022/07/23 08:34:51;;;;;;;0.17;0.17;;;;;;;;;;5036963;28;20410;-65
2022/07/23 08:37:16;;;;;;;0.00;0.00;;;;;;;;;;5034079;28;20263;-65
2022/07/23 08:39:41;;;;;;;0.17;0.17;;;;;;;;;;5035706;28;20083;-65
2022/07/23 08:42:07;;;;;;;0.10;0.10;;;;;;;;;;5040615;28;20780;-66
2022/07/23 08:44:33;;;;;;;0.47;0.20;;;;;;;;;;5047561;28;20266;-65
2022/07/23 08:46:59;;;;;;;0.00;0.00;;;;;;;;;;5038764;28;20065;-65
2022/07/23 08:49:24;;;;;;;0.10;0.10;;;;;;;;;;5041527;28;20061;-65
2022/07/23 08:51:50;;;;;;;0.08;0.08;;;;;;;;;;5043034;28;20426;-65
2022/07/23 08:54:15;;;;;;;0.73;0.73;;;;;;;;;;5039179;28;20096;-65
2022/07/23 08:56:40;;;;;;;0.00;0.00;;;;;;;;;;5043783;28;20104;-66
2022/07/23 08:59:05;;;;;;;0.20;0.20;;;;;;;;;;5038313;28;20017;-66
2022/07/23 09:01:31;;;;;;;0.33;0.33;;;;;;;;;;5039689;28;20021;-66
2022/07/23 09:03:56;;;;;;;0.00;0.00;;;;;;;;;;5040584;28;20287;-66
2022/07/23 09:06:21;;;;;;;0.32;0.32;;;;;;;;;;5040725;28;20276;-66
2022/07/23 09:08:47;;;;;;;0.00;0.00;;;;;;;;;;5038022;28;20412;-66
2022/07/23 09:11:16;;;;;;;0.70;0.70;;;;;;;;;;5041504;28;20259;-65
2022/07/23 09:13:53;;;;;;;0.00;0.00;;;;;;;;;;5041590;28;20079;-65
2022/07/23 09:16:26;;;;;;;0.00;0.00;;;;;;;;;;5040973;28;20024;-65
2022/07/23 09:18:55;;;;;;;0.25;0.25;;;;;;;;;;5038232;28;20108;-66
2022/07/23 09:21:36;;;;;;;0.10;0.10;;;;;;;;;;5039347;28;20025;-65
2022/07/23 09:24:08;;;;;;;0.15;0.15;;;;;;;;;;5037449;28;20473;-65
2022/07/23 09:26:33;;;;;;;0.00;0.00;;;;;;;;;;5042240;28;20029;-65
2022/07/23 09:28:59;;;;;;;0.00;0.00;;;;;;;;;;5042986;28;20075;-67
2022/07/23 09:31:27;;;;;;;0.15;0.15;;;;;;;;;;5041880;28;20014;-67
2022/07/23 09:33:52;;;;;;;;;;;;;;;;;;5039942;28;20029;-68
2022/07/23 09:36:27;;;;;;;0.00;0.00;;;;;;;;;;5040836;28;19932;-67
2022/07/23 09:38:52;;;;;;;1.23;1.23;;;;;;;;;;5039304;28;20551;-68
2022/07/23 09:41:17;;;;;;;0.43;0.43;;;;;;;;;;5040596;28;20037;-67
2022/07/23 09:43:47;;;;;;;0.00;0.00;;;;;;;;;;5045290;28;20286;-68
2022/07/23 09:46:19;;;;;;;0.05;0.00;;;;;;;;;;5043173;28;20510;-67
2022/07/23 09:48:44;;;;;;;0.25;0.25;;;;;;;;;;5041789;28;20016;-67
2022/07/23 09:51:10;;;;;;;0.00;0.00;;;;;;;;;;5038114;28;20029;-63
2022/07/23 09:53:38;;;;;;;0.00;0.00;;;;;;;;;;5040026;28;20025;-68
2022/07/23 09:56:03;;;;;;;0.10;0.10;;;;;;;;;;5040219;28;20033;-66
2022/07/23 09:58:29;;;;;;;0.00;0.00;;;;;;;;;;5041789;28;20039;-67
2022/07/23 10:00:55;;;;;;;0.17;0.17;;;;;;;;;;5041641;28;20020;-67
2022/07/23 10:03:23;;;;;;;0.00;0.00;;;;;;;;;;5039416;28;20421;-68
2022/07/23 10:05:49;;;;;;;0.00;0.00;;;;;;;;;;5039542;28;20017;-67
2022/07/23 10:08:16;;;;;;;0.98;0.90;;;;;;;;;;5038520;28;20437;-66
2022/07/23 10:10:42;;;;;;;0.15;0.15;;;;;;;;;;5041356;28;20025;-67
2022/07/23 10:15:51;;;;;;;0.00;0.00;;;;;;;;;;5039439;28;20100;-68
2022/07/23 10:18:16;;;;;;;0.75;0.75;;;;;;;;;;5039723;28;20025;-67
2022/07/23 10:20:42;;;;;;;0.30;0.30;;;;;;;;;;5040725;28;20503;-67
2022/07/23 10:23:14;;;;;;;0.52;0.52;;;;;;;;;;5038701;28;20021;-67
2022/07/23 10:25:41;;;;;;;0.10;0.10;;;;;;;;;;5039527;28;20024;-66
2022/07/23 10:28:28;;;;;;;0.00;0.00;;;;;;;;;;5039112;28;20028;-65
2022/07/23 10:31:11;;;;;;;0.65;0.65;;;;;;;;;;5041464;28;20095;-67
2022/07/23 10:33:54;;;;;;;0.52;0.52;;;;;;;;;;5040508;28;20045;-67
2022/07/23 10:36:24;;;;;;;0.00;0.00;;;;;;;;;;5040077;28;20037;-67
2022/07/23 10:38:56;;;;;;;0.00;0.00;;;;;;;;;;5041741;28;20029;-67
2022/07/23 10:41:42;;;;;;;0.00;0.00;;;;;;;;;;5041440;28;20035;-68
2022/07/23 10:44:13;;;;;;;0.90;0.50;;;;;;;;;;5041453;28;20372;-68
2022/07/23 10:47:01;;;;;;;0.40;0.40;;;;;;;;;;5039591;28;20025;-68
2022/07/23 10:49:28;;;;;;;0.47;0.17;;;;;;;;;;5039470;28;20351;-68
2022/07/23 10:52:11;;;;;;;0.00;0.00;;;;;;;;;;5039214;28;20020;-68
2022/07/23 10:54:36;;;;;;;0.10;0.10;;;;;;;;;;5039240;28;20021;-68
2022/07/23 10:57:06;;;;;;;1.95;1.85;;;;;;;;;;5040267;28;20134;-67
2022/07/23 10:59:52;;;;;;;0.77;0.60;;;;;;;;;;5039336;28;20027;-68
2022/07/23 11:02:20;;;;;;;0.00;0.00;;;;;;;;;;5039900;28;20128;-68
2022/07/23 11:04:46;;;;;;;;;;;;;;;;;;5038212;28;20044;-68
2022/07/23 11:07:12;;;;;;;0.75;0.75;;;;;;;;;;5039704;28;19921;-68
2022/07/23 11:09:41;;;;;;;0.00;0.00;;;;;;;;;;5040390;28;20021;-68
2022/07/23 11:12:12;;;;;;;0.00;0.00;;;;;;;;;;5041083;28;20021;-68
2022/07/23 11:14:56;;;;;;;0.00;0.00;;;;;;;;;;5038229;28;20151;-68
2022/07/23 11:17:21;;;;;;;0.00;0.00;;;;;;;;;;5041068;28;20032;-68
2022/07/23 11:20:05;;;;;;;2.05;1.00;;;;;;;;;;5037379;28;20025;-69
2022/07/23 11:22:40;;;;;;;0.00;0.00;;;;;;;;;;5040686;28;20029;-69
2022/07/23 11:25:09;;;;;;;0.13;0.13;;;;;;;;;;5038508;28;20029;-68
2022/07/23 11:27:41;;;;;;;0.00;0.00;;;;;;;;;;5038933;28;20075;-68
2022/07/23 11:30:10;;;;;;;0.10;0.10;;;;;;;;;;5038902;28;20079;-68
2022/07/23 11:32:38;;;;;;;1.55;0.80;;;;;;;;;;5041062;28;20044;-68
2022/07/23 11:35:18;;;;;;;0.40;0.40;;;;;;;;;;5041641;28;20051;-66
2022/07/23 11:37:47;;;;;;;0.00;0.00;;;;;;;;;;5039552;28;20070;-67
2022/07/23 11:40:13;;;;;;;0.30;0.25;;;;;;;;;;5039538;28;20430;-65
2022/07/23 11:42:53;;;;;;;0.00;0.00;;;;;;;;;;5039426;28;20045;-67
2022/07/23 11:45:24;;;;;;;0.88;0.88;;;;;;;;;;5038468;28;20017;-66
2022/07/23 11:47:50;;;;;;;1.02;0.80;;;;;;;;;;5041860;28;20029;-67
2022/07/23 11:50:16;;;;;;;0.00;0.00;;;;;;;;;;5038263;28;20025;-67
2022/07/23 11:52:41;;;;;;;0.00;0.00;;;;;;;;;;5039226;28;20025;-66
2022/07/23 11:55:08;;;;;;;0.52;0.52;;;;;;;;;;5040119;28;20033;-66
2022/07/23 11:57:34;;;;;;;0.00;0.00;;;;;;;;;;5032880;28;20044;-66
2022/07/23 12:00:06;;;;;;;0.30;0.30;;;;;;;;;;5034497;28;20029;-64
2022/07/23 12:02:34;;;;;;;0.32;0.28;;;;;;;;;;5043995;28;20060;-66
2022/07/23 12:05:00;;;;;;;0.77;0.77;;;;;;;;;;5039388;28;20078;-66
2022/07/23 12:07:36;;;;;;;1.95;1.95;;;;;;;;;;5034442;28;20021;-65
2022/07/23 12:10:10;;;;;;;0.75;0.75;;;;;;;;;;5034874;28;20029;-65
2022/07/23 12:12:39;;;;;;;0.00;0.00;;;;;;;;;;5037961;28;20031;-66
2022/07/23 12:15:08;;;;;;;0.17;0.17;;;;;;;;;;5041146;28;20095;-65
2022/07/23 12:17:35;;;;;;;0.47;0.47;;;;;;;;;;5042241;28;20108;-66
2022/07/23 12:20:01;;;;;;;0.00;0.00;;;;;;;;;;5042918;28;20044;-66
2022/07/23 12:22:33;;;;;;;0.00;0.00;;;;;;;;;;5039556;28;20464;-66
2022/07/23 12:24:59;;;;;;;1.08;1.08;;;;;;;;;;5044382;28;20117;-66
2022/07/23 12:27:25;;;;;;;0.00;0.00;;;;;;;;;;5041698;28;20108;-66
2022/07/23 12:29:51;;;;;;;0.22;0.22;;;;;;;;;;5043221;28;20083;-67
2022/07/23 12:32:26;;;;;;;2.10;1.98;;;;;;;;;;5042368;28;20017;-64
2022/07/23 12:35:08;;;;;;;0.00;0.00;;;;;;;;;;5043111;28;20119;-66
2022/07/23 12:37:37;;;;;;;0.00;0.00;;;;;;;;;;5045614;28;20055;-66
2022/07/23 12:40:19;;;;;;;0.20;0.20;;;;;;;;;;5039400;28;20033;-67
2022/07/23 12:42:45;;;;;;;1.75;1.35;;;;;;;;;;5043304;28;20030;-66
2022/07/23 12:45:13;;;;;;;0.00;0.00;;;;;;;;;;5040766;28;20025;-68
2022/07/23 12:47:51;;;;;;;0.38;0.38;;;;;;;;;;5040772;28;20369;-68
2022/07/23 12:50:43;;;;;;;0.00;0.00;;;;;;;;;;5041211;28;20025;-68
2022/07/23 12:53:18;;;;;;;0.00;0.00;;;;;;;;;;5041561;28;20494;-68
2022/07/23 12:55:44;;;;;;;0.00;0.00;;;;;;;;;;5041818;28;20024;-67
2022/07/23 12:58:11;;;;;;;0.00;0.00;;;;;;;;;;5043109;28;20022;-65
2022/07/23 13:00:55;;;;;;;0.85;0.55;;;;;;;;;;5041957;28;20021;-66
2022/07/23 13:03:21;;;;;;;0.47;0.40;;;;;;;;;;5035850;28;20060;-67
2022/07/23 13:05:47;;;;;;;0.00;0.00;;;;;;;;;;5042180;28;20025;-67
2022/07/23 13:08:12;;;;;;;0.55;0.55;;;;;;;;;;5044038;28;20028;-66
2022/07/23 13:10:37;;;;;;;0.07;0.07;;;;;;;;;;5044132;28;20473;-67
2022/07/23 13:13:07;;;;;;;0.43;0.43;;;;;;;;;;5040934;28;20296;-67
2022/07/23 13:15:32;;;;;;;0.20;0.20;;;;;;;;;;5044481;28;20128;-67
2022/07/23 13:17:58;;;;;;;1.30;1.30;;;;;;;;;;5043099;28;20097;-68
2022/07/23 13:20:23;;;;;;;0.60;0.60;;;;;;;;;;5040945;28;20252;-69
2022/07/23 13:22:48;;;;;;;0.00;0.00;;;;;;;;;;5037176;28;20789;-68
2022/07/23 13:25:13;;;;;;;0.00;0.00;;;;;;;;;;5044257;28;20382;-68
2022/07/23 13:27:38;;;;;;;0.13;0.13;;;;;;;;;;5041000;28;20332;-68
2022/07/23 13:30:04;;;;;;;0.77;0.77;;;;;;;;;;5040776;28;20025;-68
2022/07/23 13:32:32;;;;;;;0.00;0.00;;;;;;;;;;5044366;28;20332;-67
2022/07/23 13:34:57;;;;;;;0.00;0.00;;;;;;;;;;5043696;28;20392;-75
2022/07/23 13:37:22;;;;;;;0.00;0.00;;;;;;;;;;5040909;28;20027;-72
2022/07/23 13:39:48;;;;;;;0.00;0.00;;;;;;;;;;5041632;28;20322;-77
2022/07/23 13:42:13;;;;;;;1.95;0.80;;;;;;;;;;5039246;28;20100;-76
2022/07/23 13:44:38;;;;;;;1.13;1.13;;;;;;;;;;5040219;28;20053;-62
2022/07/23 13:47:03;;;;;;;1.83;1.73;;;;;;;;;;5042168;28;20831;-61
2022/07/23 13:49:29;;;;;;;0.00;0.00;;;;;;;;;;5037370;28;20270;-67
2022/07/23 13:51:54;;;;;;;0.00;0.00;;;;;;;;;;5040210;28;20013;-66
2022/07/23 13:54:19;;;;;;;0.10;0.10;;;;;;;;;;5040378;28;20466;-65
2022/07/23 13:56:44;;;;;;;0.03;0.03;;;;;;;;;;5037796;28;20263;-66
2022/07/23 13:59:10;;;;;;;0.00;0.00;;;;;;;;;;5040596;28;20381;-67
2022/07/23 14:01:38;;;;;;;0.68;0.68;;;;;;;;;;5043867;28;20661;-67
2022/07/23 14:04:04;;;;;;;0.00;0.00;;;;;;;;;;5037643;28;20389;-66
2022/07/23 14:06:29;;;;;;;0.00;0.00;;;;;;;;;;5039834;28;20125;-65
2022/07/23 14:08:54;;;;;;;0.13;0.13;;;;;;;;;;5040370;28;20049;-65
2022/07/23 14:11:19;;;;;;;0.00;0.00;;;;;;;;;;5040043;28;20104;-69
2022/07/23 14:13:44;;;;;;;0.52;0.52;;;;;;;;;;5040116;28;20350;-69
2022/07/23 14:16:10;;;;;;;0.00;0.00;;;;;;;;;;5041350;28;20044;-69
2022/07/23 14:18:36;;;;;;;0.00;0.00;;;;;;;;;;5038868;28;20299;-71
2022/07/23 14:21:02;;;;;;;0.00;0.00;;;;;;;;;;5038898;28;20025;-72
2022/07/23 14:23:27;;;;;;;0.00;0.00;;;;;;;;;;5038315;28;20026;-72
2022/07/23 14:25:55;;;;;;;0.00;0.00;;;;;;;;;;5038770;28;20025;-72
2022/07/23 14:28:20;;;;;;;0.00;0.00;;;;;;;;;;5042971;28;20122;-69
2022/07/23 14:30:48;;;;;;;0.30;0.30;;;;;;;;;;5036900;28;20013;-70
2022/07/23 14:33:15;;;;;;;0.00;0.00;;;;;;;;;;5030390;28;20279;-70
2022/07/23 14:35:40;;;;;;;0.00;0.00;;;;;;;;;;5039069;28;20438;-71
2022/07/23 14:38:05;;;;;;;1.15;1.15;;;;;;;;;;5043551;28;20040;-70
2022/07/23 14:40:31;;;;;;;0.10;0.10;;;;;;;;;;5040887;28;20104;-70
2022/07/23 14:42:56;;;;;;;0.00;0.00;;;;;;;;;;5040164;28;20025;-70
2022/07/23 14:45:24;;;;;;;0.00;0.00;;;;;;;;;;5037283;28;20044;-71
2022/07/23 14:47:49;;;;;;;0.30;0.30;;;;;;;;;;5039397;28;20283;-69